Aérodrome :
LOGIN :

S'inscrire | Disclaimer

   EN    FR    IT 

 










Légende :    VFR   VFR Marginal   IFR   IFR Intensif   IFR Très Intensif
Visi : 
Plafond : 
>= 8 km
>= 3000ft
5 à 8 km
1000 à 3000 ft
1500m à 5 km
500 à 1000 ft
800 à 1500m
200 à 500 ft
< 800m
< 200 ft
Symboles :   Orages  Brouillard  Fortes neiges  Fortes précipitations  Vent > 20 kt
SIGMETs :   Divers  Orages  Givrage  Turbulence  Onde Orograph.  Cendres Volcan.







- Altitude de l'aérodrome : 6 ft
- Code IATA : PSA


LIRP - Galileo Galilei Pisa

DERNIER METAR :
  • 162315Z 12004KT 0700 FG BKN001 10/10 Q1027 TEMPO 0500 FG

METARs EXPIRÉS :
  • 162245Z 11005KT 0700 R04R/0200 FG BKN001 10/10 Q1027 TEMPO 0500 FG
  • 162215Z 10004KT 0600 R04R/0350 FG BKN001 11/11 Q1027 TEMPO 05
  • 162145Z 10004KT 0700 R04R/0275 FG BKN001 10/10 Q1027 TEMPO 0500 FG
  • 162115Z 12003KT 0700 R04R/0400 FG BKN001 11/11 Q1027 TEMPO 0500 FG
  • 162045Z 14003KT 0400 R04R/0225 FG BKN001 11/11 Q1027 NOSIG

TAF TAF LIRP
Valide du 17 à 00h jusqu'au 18 à 00h UTC


162300Z 1700/1724 VRB03KT 1500 BCFG SCT002
TEMPO 1700/1706 0600 FG BKN002
PROB30
TEMPO 1700/1704 0200 FG BKN001
BECMG 1707/1709 3500 BR NSC
BECMG 1710/1712 28008KT CAVOK
Pas de NOTAMs connus pour ce terrain.



MET'MAP, la Météo Aéronautique d'un coup d'oeil ! - Copyright ORBIFLY Décembre 2007 - Disclaimer

ORBIFLY MET'MAP TEAM :

Programmation & Développement : Alexandra Zaïnal
Conception & Développement : Baudouin d'Aumeries
Co-Programmation & Développement : Marc-Olivier Méhu
Soutien technique & logistique : Manuel Goepfert

Contact : metmap@orbifly.com




SOURCES & CREDITS :

   NOAA